Time;durP1;ratioP1;P1;durP2;ratioP2;P2;SDS_P1;SDS_P2;PMS_P1;PMS_P2;Temp;Humidity;BMP_temperature;BMP_pressure;BME280_temperature;BME280_humidity;BME280_pressure;Samples;Min_cycle;Max_cycle;Signal;HPM_P1;HPM_P2
2021/05/10 00:00:21;;;;;;;8.82;2.63;;;;;;;;;;5062594;28;20620;-35
2021/05/10 00:02:46;;;;;;;8.20;2.33;;;;;;;;;;5068533;28;20115;-35
2021/05/10 00:05:12;;;;;;;10.65;2.25;;;;;;;;;;5067562;28;20111;-35
2021/05/10 00:07:37;;;;;;;2.72;1.95;;;;;;;;;;5066892;28;20443;-35
2021/05/10 00:10:04;;;;;;;9.20;3.60;;;;;;;;;;5069989;28;20548;-35
2021/05/10 00:12:29;;;;;;;5.50;1.73;;;;;;;;;;5065337;28;20664;-35
2021/05/10 00:14:54;;;;;;;14.43;2.90;;;;;;;;;;5067707;28;20029;-35
2021/05/10 00:17:20;;;;;;;4.40;2.10;;;;;;;;;;5068754;28;20044;-35
2021/05/10 00:19:45;;;;;;;11.35;3.40;;;;;;;;;;5065146;28;20060;-38
2021/05/10 00:22:11;;;;;;;9.13;3.10;;;;;;;;;;5070100;28;20035;-35
2021/05/10 00:24:36;;;;;;;5.03;2.58;;;;;;;;;;5067351;28;20139;-35
2021/05/10 00:27:01;;;;;;;16.40;2.78;;;;;;;;;;5072620;28;20029;-35
2021/05/10 00:29:27;;;;;;;7.07;3.45;;;;;;;;;;5071631;28;20443;-35
2021/05/10 00:31:52;;;;;;;12.10;2.70;;;;;;;;;;5070374;28;20039;-35
2021/05/10 00:34:18;;;;;;;6.05;3.30;;;;;;;;;;5064498;28;20170;-35
2021/05/10 00:36:43;;;;;;;7.10;3.47;;;;;;;;;;5067747;28;20025;-35
2021/05/10 00:39:09;;;;;;;4.80;1.85;;;;;;;;;;5063116;28;20036;-35
2021/05/10 00:41:34;;;;;;;8.30;2.33;;;;;;;;;;5067600;28;20034;-35
2021/05/10 00:43:59;;;;;;;11.63;3.72;;;;;;;;;;5070577;28;20067;-35
2021/05/10 00:46:25;;;;;;;24.13;5.55;;;;;;;;;;5069161;28;20029;-35
2021/05/10 00:48:51;;;;;;;10.20;3.72;;;;;;;;;;5067384;28;20059;-35
2021/05/10 00:51:16;;;;;;;3.38;1.80;;;;;;;;;;5071452;28;20452;-35
2021/05/10 00:53:41;;;;;;;2.97;2.25;;;;;;;;;;5072364;28;20139;-35
2021/05/10 00:56:07;;;;;;;2.67;2.10;;;;;;;;;;5067437;28;20036;-35
2021/05/10 00:58:33;;;;;;;10.45;3.72;;;;;;;;;;5070192;28;20535;-35
2021/05/10 01:00:58;;;;;;;9.48;4.47;;;;;;;;;;5065470;28;20029;-36
2021/05/10 01:03:23;;;;;;;3.63;2.05;;;;;;;;;;5070952;28;20032;-36
2021/05/10 01:05:49;;;;;;;8.55;2.35;;;;;;;;;;5063492;28;20519;-36
2021/05/10 01:08:14;;;;;;;12.57;3.05;;;;;;;;;;5065822;28;20382;-36
2021/05/10 01:10:39;;;;;;;7.22;3.35;;;;;;;;;;5067438;28;20033;-36
2021/05/10 01:13:05;;;;;;;4.38;2.22;;;;;;;;;;5064015;28;20471;-36
2021/05/10 01:15:30;;;;;;;5.88;2.92;;;;;;;;;;5069549;28;20033;-36
2021/05/10 01:17:56;;;;;;;4.40;3.03;;;;;;;;;;5068323;28;20037;-36
2021/05/10 01:20:22;;;;;;;4.53;2.42;;;;;;;;;;5063781;28;20055;-36
2021/05/10 01:22:52;;;;;;;5.20;3.47;;;;;;;;;;5064954;28;20482;-36
2021/05/10 01:25:19;;;;;;;6.95;2.88;;;;;;;;;;5064629;28;20063;-35
2021/05/10 01:27:44;;;;;;;12.38;3.13;;;;;;;;;;5066122;28;20040;-36
2021/05/10 01:30:13;;;;;;;6.47;2.95;;;;;;;;;;5067491;28;20181;-35
2021/05/10 01:32:38;;;;;;;6.68;3.47;;;;;;;;;;5065345;28;20082;-36
2021/05/10 01:35:05;;;;;;;12.07;3.53;;;;;;;;;;5064707;28;20542;-36
2021/05/10 01:37:31;;;;;;;9.57;2.63;;;;;;;;;;5065679;28;20077;-36
2021/05/10 01:39:56;;;;;;;26.90;3.40;;;;;;;;;;5065886;28;20091;-36
2021/05/10 01:42:21;;;;;;;11.52;4.13;;;;;;;;;;5068852;28;20621;-36
2021/05/10 01:44:47;;;;;;;4.22;2.17;;;;;;;;;;5065370;28;20482;-36
2021/05/10 01:47:12;;;;;;;7.78;3.22;;;;;;;;;;5063684;28;20540;-35
2021/05/10 01:49:37;;;;;;;14.00;3.40;;;;;;;;;;5067897;28;20041;-36
2021/05/10 01:52:03;;;;;;;4.75;3.25;;;;;;;;;;5072202;28;20481;-36
2021/05/10 01:54:28;;;;;;;9.82;4.38;;;;;;;;;;5066556;28;20040;-36
2021/05/10 01:56:54;;;;;;;9.18;3.97;;;;;;;;;;5064675;28;20362;-36
2021/05/10 01:59:19;;;;;;;4.15;2.63;;;;;;;;;;5065092;28;20032;-35
2021/05/10 02:01:44;;;;;;;27.33;5.28;;;;;;;;;;5063504;28;20028;-36
2021/05/10 02:04:10;;;;;;;10.38;4.10;;;;;;;;;;5066822;28;20388;-36
2021/05/10 02:06:35;;;;;;;10.52;3.88;;;;;;;;;;5065122;28;20025;-36
2021/05/10 02:09:00;;;;;;;7.93;3.75;;;;;;;;;;5062935;28;20412;-36
2021/05/10 02:11:25;;;;;;;7.97;3.38;;;;;;;;;;5064603;28;20024;-36
2021/05/10 02:13:51;;;;;;;6.00;4.35;;;;;;;;;;5063357;28;20403;-36
2021/05/10 02:16:16;;;;;;;6.95;4.05;;;;;;;;;;5061789;28;20488;-36
2021/05/10 02:18:41;;;;;;;10.98;3.30;;;;;;;;;;5060608;28;20055;-36
2021/05/10 02:21:07;;;;;;;6.13;3.33;;;;;;;;;;5060842;28;20531;-36
2021/05/10 02:23:33;;;;;;;12.57;3.38;;;;;;;;;;5064517;28;20393;-35
2021/05/10 02:26:02;;;;;;;7.35;3.45;;;;;;;;;;5063280;28;20502;-35
2021/05/10 02:28:28;;;;;;;6.60;2.65;;;;;;;;;;5061841;28;20181;-35
2021/05/10 02:30:54;;;;;;;8.15;3.67;;;;;;;;;;5062480;28;20025;-35
2021/05/10 02:33:25;;;;;;;18.90;3.75;;;;;;;;;;5061077;28;20063;-35
2021/05/10 02:35:52;;;;;;;21.55;5.65;;;;;;;;;;5059802;28;20124;-35
2021/05/10 02:38:18;;;;;;;9.05;3.72;;;;;;;;;;5059200;28;20095;-35
2021/05/10 02:40:44;;;;;;;7.47;3.42;;;;;;;;;;5058777;28;20025;-35
2021/05/10 02:43:09;;;;;;;3.72;2.25;;;;;;;;;;5063602;28;20040;-35
2021/05/10 02:45:34;;;;;;;9.88;3.53;;;;;;;;;;5062331;28;20125;-35
2021/05/10 02:48:00;;;;;;;5.18;2.13;;;;;;;;;;5061021;28;20048;-37
2021/05/10 02:50:26;;;;;;;9.90;3.20;;;;;;;;;;5066438;28;20036;-35
2021/05/10 02:52:52;;;;;;;5.50;3.35;;;;;;;;;;5063580;28;20480;-35
2021/05/10 02:55:17;;;;;;;5.88;2.60;;;;;;;;;;5058414;28;20036;-35
2021/05/10 02:57:43;;;;;;;11.90;3.70;;;;;;;;;;5061530;28;20086;-35
2021/05/10 03:00:10;;;;;;;9.02;4.28;;;;;;;;;;5065226;28;20056;-35
2021/05/10 03:02:36;;;;;;;9.13;2.85;;;;;;;;;;5059269;28;20277;-36
2021/05/10 03:05:01;;;;;;;5.78;3.38;;;;;;;;;;5060981;28;20557;-36
2021/05/10 03:07:26;;;;;;;9.60;3.67;;;;;;;;;;5062315;28;20519;-36
2021/05/10 03:09:52;;;;;;;4.05;2.92;;;;;;;;;;5067216;28;20052;-35
2021/05/10 03:12:17;;;;;;;8.27;3.38;;;;;;;;;;5055863;28;20114;-50
2021/05/10 03:14:42;;;;;;;11.50;3.63;;;;;;;;;;5057937;28;20039;-36
2021/05/10 03:17:08;;;;;;;6.30;2.45;;;;;;;;;;5061955;28;20033;-36
2021/05/10 03:19:33;;;;;;;7.00;3.15;;;;;;;;;;5060862;28;20036;-36
2021/05/10 03:21:58;;;;;;;10.45;3.97;;;;;;;;;;5060588;28;20112;-35
2021/05/10 03:24:24;;;;;;;4.55;3.08;;;;;;;;;;5057356;28;20556;-35
2021/05/10 03:26:49;;;;;;;9.75;4.25;;;;;;;;;;5053945;28;20043;-35
2021/05/10 03:29:14;;;;;;;7.45;3.15;;;;;;;;;;5058574;28;20034;-35
2021/05/10 03:31:40;;;;;;;11.40;4.40;;;;;;;;;;5057815;28;20432;-40
2021/05/10 03:34:05;;;;;;;11.32;4.18;;;;;;;;;;5063315;28;20036;-36
2021/05/10 03:36:31;;;;;;;19.25;4.40;;;;;;;;;;5059703;28;20034;-35
2021/05/10 03:38:56;;;;;;;8.00;2.33;;;;;;;;;;5065152;28;20040;-36
2021/05/10 03:41:24;;;;;;;12.88;3.63;;;;;;;;;;5058472;28;20036;-35
2021/05/10 03:43:50;;;;;;;5.07;3.25;;;;;;;;;;5062924;28;20043;-35
2021/05/10 03:46:15;;;;;;;11.00;4.47;;;;;;;;;;5061084;28;20181;-36
2021/05/10 03:48:40;;;;;;;10.85;3.80;;;;;;;;;;5059075;28;20048;-36
2021/05/10 03:51:06;;;;;;;11.75;3.25;;;;;;;;;;5058685;28;20456;-35
2021/05/10 03:53:31;;;;;;;8.45;3.92;;;;;;;;;;5064589;28;20083;-35
2021/05/10 03:55:56;;;;;;;14.82;4.55;;;;;;;;;;5065164;28;20487;-35
2021/05/10 03:58:22;;;;;;;14.75;4.15;;;;;;;;;;5067907;28;20536;-36
2021/05/10 04:00:47;;;;;;;11.98;3.17;;;;;;;;;;5071201;28;20024;-35
2021/05/10 04:03:14;;;;;;;7.03;3.90;;;;;;;;;;5060641;28;20037;-35
2021/05/10 04:11:08;;;;;;;6.70;3.35;;;;;;;;;;5073990;28;20020;-35
2021/05/10 04:13:39;;;;;;;10.15;3.22;;;;;;;;;;5071140;28;20040;-35
2021/05/10 04:16:05;;;;;;;5.65;4.05;;;;;;;;;;5066609;28;20068;-35
2021/05/10 04:18:31;;;;;;;9.98;3.63;;;;;;;;;;5065808;28;20040;-35
2021/05/10 04:20:56;;;;;;;3.33;2.35;;;;;;;;;;5065901;28;20492;-35
2021/05/10 04:23:22;;;;;;;4.25;2.78;;;;;;;;;;5065472;28;20075;-35
2021/05/10 04:25:48;;;;;;;10.57;2.95;;;;;;;;;;5066732;28;20032;-35
2021/05/10 04:28:13;;;;;;;10.90;3.17;;;;;;;;;;5062173;28;20043;-35
2021/05/10 04:30:39;;;;;;;11.73;2.97;;;;;;;;;;5069039;28;20029;-35
2021/05/10 04:33:05;;;;;;;7.85;3.53;;;;;;;;;;5077913;28;20036;-35
2021/05/10 04:35:32;;;;;;;18.20;3.97;;;;;;;;;;5075728;28;20039;-35
2021/05/10 04:37:57;;;;;;;8.00;2.00;;;;;;;;;;5062859;28;20123;-36
2021/05/10 04:40:22;;;;;;;8.35;3.08;;;;;;;;;;5062864;28;20116;-35
2021/05/10 04:42:48;;;;;;;7.03;2.92;;;;;;;;;;5066657;28;20392;-35
2021/05/10 04:45:13;;;;;;;17.73;4.68;;;;;;;;;;5064796;28;20100;-35
2021/05/10 04:47:40;;;;;;;9.25;4.00;;;;;;;;;;5066432;28;20440;-35
2021/05/10 04:50:07;;;;;;;6.85;3.90;;;;;;;;;;5068135;28;20062;-35
2021/05/10 04:52:32;;;;;;;13.68;4.13;;;;;;;;;;5068290;28;20731;-35
2021/05/10 04:54:58;;;;;;;7.50;4.45;;;;;;;;;;5065752;28;20052;-35
2021/05/10 04:57:23;;;;;;;7.60;4.38;;;;;;;;;;5071914;28;20047;-35
2021/05/10 04:59:48;;;;;;;11.93;4.15;;;;;;;;;;5073049;28;20063;-35
2021/05/10 05:02:14;;;;;;;9.75;3.00;;;;;;;;;;5066886;28;20037;-35
2021/05/10 05:04:39;;;;;;;8.88;3.63;;;;;;;;;;5072501;28;20590;-35
2021/05/10 05:07:04;;;;;;;11.02;2.35;;;;;;;;;;5068338;28;20477;-35
2021/05/10 05:09:30;;;;;;;4.30;2.45;;;;;;;;;;5074841;28;20040;-35
2021/05/10 05:11:55;;;;;;;10.60;2.08;;;;;;;;;;5063056;28;20729;-36
2021/05/10 05:14:20;;;;;;;5.55;3.38;;;;;;;;;;5065060;28;20705;-35
2021/05/10 05:16:45;;;;;;;5.57;4.40;;;;;;;;;;5052555;28;20074;-35
2021/05/10 05:19:11;;;;;;;16.30;8.95;;;;;;;;;;5063497;28;20044;-35
2021/05/10 05:21:36;;;;;;;7.50;4.40;;;;;;;;;;5070066;28;20024;-35
2021/05/10 05:24:02;;;;;;;9.57;2.63;;;;;;;;;;5066300;28;20073;-34
2021/05/10 05:26:27;;;;;;;10.00;2.72;;;;;;;;;;5073153;28;20055;-36
2021/05/10 05:28:52;;;;;;;10.18;2.78;;;;;;;;;;5071415;28;20040;-36
2021/05/10 05:31:18;;;;;;;5.15;2.65;;;;;;;;;;5070153;28;20086;-36
2021/05/10 05:33:43;;;;;;;9.93;3.33;;;;;;;;;;5078634;28;20044;-36
2021/05/10 05:36:09;;;;;;;14.50;3.20;;;;;;;;;;5075671;28;20036;-36
2021/05/10 05:38:37;;;;;;;10.60;3.80;;;;;;;;;;5061932;28;20112;-36
2021/05/10 05:41:02;;;;;;;5.53;2.97;;;;;;;;;;5063154;28;20091;-36
2021/05/10 05:43:27;;;;;;;6.13;3.25;;;;;;;;;;5067144;28;20040;-36
2021/05/10 05:45:53;;;;;;;10.80;2.80;;;;;;;;;;5062332;28;20032;-36
2021/05/10 05:48:18;;;;;;;14.98;3.50;;;;;;;;;;5062789;28;20545;-35
2021/05/10 05:50:43;;;;;;;8.90;2.83;;;;;;;;;;5063884;28;20094;-36
2021/05/10 05:53:09;;;;;;;7.05;2.25;;;;;;;;;;5063329;28;20037;-36
2021/05/10 05:55:35;;;;;;;7.53;2.63;;;;;;;;;;5067413;28;20051;-36
2021/05/10 05:58:00;;;;;;;2.95;2.40;;;;;;;;;;5064863;28;20025;-36
2021/05/10 06:00:26;;;;;;;8.05;3.15;;;;;;;;;;5065102;28;20078;-36
2021/05/10 06:02:51;;;;;;;11.25;4.07;;;;;;;;;;5065236;28;20060;-36
2021/05/10 06:05:17;;;;;;;4.30;1.75;;;;;;;;;;5058110;28;20098;-36
2021/05/10 06:07:46;;;;;;;4.53;2.42;;;;;;;;;;5061681;28;20109;-36
2021/05/10 06:10:17;;;;;;;8.55;2.50;;;;;;;;;;5058539;28;20036;-36
2021/05/10 06:12:45;;;;;;;6.80;2.28;;;;;;;;;;5064313;28;20051;-36
2021/05/10 06:15:11;;;;;;;6.32;1.95;;;;;;;;;;5068756;28;20162;-36
2021/05/10 06:17:36;;;;;;;7.95;2.75;;;;;;;;;;5063655;28;20095;-36
2021/05/10 06:20:05;;;;;;;8.15;3.97;;;;;;;;;;5061623;28;20539;-36
2021/05/10 06:22:30;;;;;;;3.13;1.95;;;;;;;;;;5062913;28;20110;-36
2021/05/10 06:24:56;;;;;;;3.33;1.48;;;;;;;;;;5063902;28;20052;-35
2021/05/10 06:27:21;;;;;;;5.30;2.40;;;;;;;;;;5063880;28;20040;-36
2021/05/10 06:29:46;;;;;;;9.25;2.88;;;;;;;;;;5064278;28;20551;-35
2021/05/10 06:32:12;;;;;;;5.60;1.20;;;;;;;;;;5061873;28;20524;-35
2021/05/10 06:34:37;;;;;;;7.03;1.60;;;;;;;;;;5057680;28;20028;-35
2021/05/10 06:37:02;;;;;;;5.70;2.17;;;;;;;;;;5058558;28;20035;-36
2021/05/10 06:39:28;;;;;;;7.43;2.15;;;;;;;;;;5063486;28;20036;-35
2021/05/10 06:41:53;;;;;;;3.42;2.17;;;;;;;;;;5054270;28;20570;-36
2021/05/10 06:44:18;;;;;;;2.95;1.58;;;;;;;;;;5066491;28;20489;-36
2021/05/10 06:46:44;;;;;;;2.60;1.85;;;;;;;;;;5060879;28;20489;-36
2021/05/10 06:49:09;;;;;;;2.88;2.55;;;;;;;;;;5069770;28;20619;-36
2021/05/10 06:51:34;;;;;;;5.75;2.55;;;;;;;;;;5067674;28;20076;-36
2021/05/10 06:53:59;;;;;;;2.65;1.52;;;;;;;;;;5064805;28;20090;-36
2021/05/10 06:56:25;;;;;;;5.00;1.77;;;;;;;;;;5063685;28;20035;-36
2021/05/10 06:58:50;;;;;;;5.38;2.08;;;;;;;;;;5066059;28;20505;-36
2021/05/10 07:01:16;;;;;;;2.80;1.33;;;;;;;;;;5059334;28;20052;-36
2021/05/10 07:03:41;;;;;;;2.47;1.45;;;;;;;;;;5058230;28;20476;-36
2021/05/10 07:06:06;;;;;;;7.80;2.13;;;;;;;;;;5057552;28;20036;-36
2021/05/10 07:08:31;;;;;;;3.03;1.30;;;;;;;;;;5059456;28;20040;-36
2021/05/10 07:10:57;;;;;;;9.15;2.10;;;;;;;;;;5062252;28;20397;-35
2021/05/10 07:13:22;;;;;;;2.88;1.38;;;;;;;;;;5065000;28;20347;-36
2021/05/10 07:15:48;;;;;;;5.78;1.02;;;;;;;;;;5062811;28;20143;-36
2021/05/10 07:18:14;;;;;;;2.30;1.50;;;;;;;;;;5064182;28;20474;-36
2021/05/10 07:20:40;;;;;;;12.80;1.63;;;;;;;;;;5056974;28;20043;-36
2021/05/10 07:23:06;;;;;;;2.78;1.35;;;;;;;;;;5064888;28;20132;-36
2021/05/10 07:25:32;;;;;;;5.07;0.95;;;;;;;;;;5066465;28;20048;-36
2021/05/10 07:27:57;;;;;;;2.47;1.45;;;;;;;;;;5058201;28;20045;-36
2021/05/10 07:30:23;;;;;;;3.17;0.80;;;;;;;;;;5060726;28;20043;-36
2021/05/10 07:32:48;;;;;;;5.93;2.85;;;;;;;;;;5056018;28;20506;-36
2021/05/10 07:35:13;;;;;;;3.67;1.55;;;;;;;;;;5062713;28;20036;-36
2021/05/10 07:37:39;;;;;;;1.73;0.77;;;;;;;;;;5065452;28;20112;-36
2021/05/10 07:40:05;;;;;;;5.32;1.60;;;;;;;;;;5065982;28;20020;-36
2021/05/10 07:42:30;;;;;;;1.98;1.05;;;;;;;;;;5061642;28;20036;-36
2021/05/10 07:44:56;;;;;;;2.55;1.45;;;;;;;;;;5064204;28;20087;-36
2021/05/10 07:47:21;;;;;;;1.10;0.70;;;;;;;;;;5066151;28;20185;-36
2021/05/10 07:49:46;;;;;;;1.48;0.73;;;;;;;;;;5063685;28;20028;-36
2021/05/10 07:52:12;;;;;;;3.25;1.35;;;;;;;;;;5066905;28;20594;-36
2021/05/10 07:54:37;;;;;;;7.47;2.50;;;;;;;;;;5069202;28;20032;-36
2021/05/10 07:57:02;;;;;;;11.23;6.97;;;;;;;;;;5063043;28;20508;-35
2021/05/10 07:59:28;;;;;;;16.98;5.95;;;;;;;;;;5065220;28;20056;-36
2021/05/10 08:01:56;;;;;;;19.52;7.95;;;;;;;;;;5064593;28;20398;-36
2021/05/10 08:04:21;;;;;;;12.82;9.02;;;;;;;;;;5068470;28;20176;-52
2021/05/10 08:06:46;;;;;;;6.90;3.42;;;;;;;;;;5065341;28;20120;-38
2021/05/10 08:09:12;;;;;;;2.55;1.48;;;;;;;;;;5060212;28;20048;-38
2021/05/10 08:11:39;;;;;;;4.95;3.22;;;;;;;;;;5065162;28;20032;-37
2021/05/10 08:14:04;;;;;;;2.88;1.45;;;;;;;;;;5055784;28;20115;-38
2021/05/10 08:16:29;;;;;;;5.97;1.80;;;;;;;;;;5038837;28;20529;-37
2021/05/10 08:18:55;;;;;;;3.03;1.30;;;;;;;;;;5059798;28;20717;-38
2021/05/10 08:21:20;;;;;;;10.57;2.92;;;;;;;;;;5060776;28;20036;-37
2021/05/10 08:23:46;;;;;;;1.83;1.08;;;;;;;;;;5064482;28;20056;-36
2021/05/10 08:26:12;;;;;;;2.42;1.38;;;;;;;;;;5059964;28;20033;-36
2021/05/10 08:28:37;;;;;;;3.30;1.77;;;;;;;;;;5060712;28;20059;-36
2021/05/10 08:31:02;;;;;;;4.03;1.73;;;;;;;;;;5059457;28;20037;-36
2021/05/10 08:33:30;;;;;;;8.02;1.42;;;;;;;;;;5063375;28;20093;-37
2021/05/10 08:35:55;;;;;;;7.85;3.55;;;;;;;;;;5048340;28;20040;-37
2021/05/10 08:38:20;;;;;;;20.40;5.32;;;;;;;;;;5066085;28;20041;-36
2021/05/10 08:40:46;;;;;;;3.65;2.20;;;;;;;;;;5061823;28;20028;-37
2021/05/10 08:43:25;;;;;;;2.95;1.77;;;;;;;;;;5060484;28;20752;-36
2021/05/10 08:45:55;;;;;;;2.00;0.90;;;;;;;;;;5060586;28;20139;-38
2021/05/10 08:48:21;;;;;;;1.95;0.45;;;;;;;;;;5056702;28;20041;-36
2021/05/10 08:50:46;;;;;;;0.82;0.35;;;;;;;;;;5059061;28;20037;-36
2021/05/10 08:53:13;;;;;;;0.88;0.60;;;;;;;;;;5060589;28;20032;-36
2021/05/10 08:55:39;;;;;;;22.55;3.08;;;;;;;;;;5061728;28;20040;-36
2021/05/10 08:58:07;;;;;;;3.92;1.52;;;;;;;;;;5063418;28;20037;-36
2021/05/10 09:00:32;;;;;;;1.05;0.55;;;;;;;;;;5057234;28;20516;-36
2021/05/10 09:03:09;;;;;;;0.75;0.43;;;;;;;;;;5063374;28;20036;-37
2021/05/10 09:05:44;;;;;;;4.45;1.38;;;;;;;;;;5058673;28;20047;-36
2021/05/10 09:08:09;;;;;;;0.68;0.40;;;;;;;;;;5065819;28;20489;-36
2021/05/10 09:10:34;;;;;;;1.92;0.70;;;;;;;;;;5062381;28;20032;-36
2021/05/10 09:13:00;;;;;;;2.67;1.83;;;;;;;;;;5065482;28;20048;-36
2021/05/10 09:15:25;;;;;;;1.10;0.95;;;;;;;;;;5064956;28;20059;-36
2021/05/10 09:17:50;;;;;;;1.50;0.88;;;;;;;;;;5058044;28;20094;-35
2021/05/10 09:20:17;;;;;;;1.27;0.98;;;;;;;;;;5062139;28;20037;-36
2021/05/10 09:22:45;;;;;;;20.02;1.77;;;;;;;;;;5058095;28;20655;-36
2021/05/10 09:25:11;;;;;;;14.88;1.85;;;;;;;;;;5056146;28;20053;-42
2021/05/10 09:27:36;;;;;;;3.92;2.05;;;;;;;;;;5056054;28;20114;-36
2021/05/10 09:30:12;;;;;;;1.38;0.75;;;;;;;;;;5057496;28;20453;-36
2021/05/10 09:32:37;;;;;;;0.70;0.52;;;;;;;;;;5060167;28;20044;-37
2021/05/10 09:35:12;;;;;;;2.72;0.50;;;;;;;;;;5056430;28;20604;-37
2021/05/10 09:37:38;;;;;;;0.77;0.70;;;;;;;;;;5059631;28;20098;-37
2021/05/10 09:40:03;;;;;;;0.63;0.63;;;;;;;;;;5057542;28;20028;-36
2021/05/10 09:42:46;;;;;;;0.88;0.45;;;;;;;;;;5057563;28;20144;-36
2021/05/10 09:45:11;;;;;;;1.25;0.60;;;;;;;;;;5059004;28;20033;-36
2021/05/10 09:47:37;;;;;;;3.03;0.82;;;;;;;;;;5058234;28;20045;-36
2021/05/10 09:50:02;;;;;;;2.38;0.65;;;;;;;;;;5062482;28;20074;-36
2021/05/10 09:52:27;;;;;;;1.27;0.45;;;;;;;;;;5063590;28;20048;-36
2021/05/10 09:54:54;;;;;;;2.03;0.52;;;;;;;;;;5066577;28;20565;-37
2021/05/10 09:57:19;;;;;;;0.65;0.45;;;;;;;;;;5063058;28;20033;-37
2021/05/10 10:00:05;;;;;;;10.55;1.10;;;;;;;;;;5058633;28;20056;-36
2021/05/10 10:02:33;;;;;;;0.95;0.38;;;;;;;;;;5059544;28;20045;-36
2021/05/10 10:04:59;;;;;;;7.07;0.63;;;;;;;;;;5058949;28;20029;-36
2021/05/10 10:07:24;;;;;;;1.52;0.57;;;;;;;;;;5060641;28;20037;-36
2021/05/10 10:09:50;;;;;;;5.30;0.80;;;;;;;;;;5055075;28;20025;-37
2021/05/10 10:12:15;;;;;;;3.65;1.52;;;;;;;;;;5057673;28;20038;-36
2021/05/10 10:14:42;;;;;;;2.78;0.43;;;;;;;;;;5052005;28;20593;-37
2021/05/10 10:17:09;;;;;;;0.93;0.60;;;;;;;;;;5057108;28;20029;-36
2021/05/10 10:19:35;;;;;;;2.75;0.32;;;;;;;;;;5058284;28;20803;-37
2021/05/10 10:22:00;;;;;;;0.32;0.20;;;;;;;;;;5056281;28;20029;-37
2021/05/10 10:24:26;;;;;;;0.38;0.20;;;;;;;;;;5061771;28;20155;-37
2021/05/10 10:26:52;;;;;;;0.32;0.30;;;;;;;;;;5057508;28;20051;-39
2021/05/10 10:29:19;;;;;;;3.28;0.90;;;;;;;;;;5059345;28;20202;-37
2021/05/10 10:31:48;;;;;;;4.85;0.43;;;;;;;;;;5061277;28;20032;-37
2021/05/10 10:34:22;;;;;;;2.95;1.08;;;;;;;;;;5057185;28;20073;-37
2021/05/10 10:36:49;;;;;;;12.82;1.13;;;;;;;;;;5055281;28;20039;-37
2021/05/10 10:39:19;;;;;;;0.73;0.25;;;;;;;;;;5055369;28;20041;-37
2021/05/10 10:41:52;;;;;;;1.67;0.70;;;;;;;;;;5055667;28;20044;-38
2021/05/10 10:44:44;;;;;;;9.80;3.08;;;;;;;;;;5058946;28;20040;-37
2021/05/10 10:47:11;;;;;;;3.92;1.27;;;;;;;;;;5048467;28;20039;-37
2021/05/10 10:49:40;;;;;;;3.03;0.70;;;;;;;;;;5055467;28;20036;-37
2021/05/10 10:52:16;;;;;;;0.30;0.20;;;;;;;;;;5054290;28;20060;-37
2021/05/10 10:54:41;;;;;;;1.85;0.47;;;;;;;;;;5056544;28;20094;-35
2021/05/10 10:57:07;;;;;;;1.52;0.70;;;;;;;;;;5060039;28;20518;-35
2021/05/10 10:59:32;;;;;;;1.92;0.82;;;;;;;;;;5058602;28;20032;-35
2021/05/10 11:02:13;;;;;;;2.00;0.80;;;;;;;;;;5053676;28;20024;-35
2021/05/10 11:04:38;;;;;;;2.13;0.80;;;;;;;;;;5057457;28;20764;-35
2021/05/10 11:07:03;;;;;;;3.58;1.35;;;;;;;;;;5054605;28;20036;-35
2021/05/10 11:09:48;;;;;;;0.65;0.50;;;;;;;;;;5041570;28;20036;-35
2021/05/10 11:12:32;;;;;;;2.13;0.80;;;;;;;;;;5053264;28;20491;-35
2021/05/10 11:14:57;;;;;;;0.47;0.20;;;;;;;;;;5057670;28;20489;-35
2021/05/10 11:17:48;;;;;;;0.40;0.20;;;;;;;;;;5051730;28;20047;-35
2021/05/10 11:20:14;;;;;;;2.53;0.77;;;;;;;;;;5055570;28;20497;-34
2021/05/10 11:22:39;;;;;;;0.50;0.22;;;;;;;;;;5059110;28;20055;-35
2021/05/10 11:25:23;;;;;;;0.75;0.38;;;;;;;;;;5057606;28;20567;-35
2021/05/10 11:27:49;;;;;;;1.10;0.57;;;;;;;;;;5062332;28;20053;-35
2021/05/10 11:30:34;;;;;;;0.30;0.25;;;;;;;;;;5068673;28;20078;-35
2021/05/10 11:32:59;;;;;;;1.60;0.82;;;;;;;;;;5055965;28;20128;-35
2021/05/10 11:35:26;;;;;;;0.63;0.40;;;;;;;;;;5058726;28;20032;-35
2021/05/10 11:37:57;;;;;;;1.13;0.60;;;;;;;;;;5057766;28;20049;-35
2021/05/10 11:40:23;;;;;;;0.75;0.32;;;;;;;;;;5059832;28;20712;-34
2021/05/10 11:42:48;;;;;;;1.45;0.30;;;;;;;;;;5061420;28;20041;-35
2021/05/10 11:45:15;;;;;;;1.48;0.28;;;;;;;;;;5063342;28;20527;-33
2021/05/10 11:47:45;;;;;;;1.70;0.35;;;;;;;;;;5060981;28;20049;-35
2021/05/10 11:50:10;;;;;;;0.13;0.13;;;;;;;;;;5058367;28;20032;-34
2021/05/10 11:52:36;;;;;;;0.70;0.35;;;;;;;;;;5057004;28;20090;-35
2021/05/10 11:55:03;;;;;;;0.13;0.10;;;;;;;;;;5052237;28;20040;-34
2021/05/10 11:57:30;;;;;;;1.95;0.25;;;;;;;;;;5064652;28;20543;-34
2021/05/10 12:00:00;;;;;;;1.70;0.98;;;;;;;;;;5056860;28;20400;-34
2021/05/10 12:02:27;;;;;;;10.75;5.60;;;;;;;;;;5059306;28;20036;-42
2021/05/10 12:04:54;;;;;;;4.25;1.83;;;;;;;;;;5060369;28;20102;-35
2021/05/10 12:07:21;;;;;;;2.13;0.90;;;;;;;;;;5058658;28;20449;-34
2021/05/10 12:09:47;;;;;;;0.68;0.30;;;;;;;;;;5060717;28;20082;-35
2021/05/10 12:12:12;;;;;;;2.42;0.82;;;;;;;;;;5058161;28;20053;-34
2021/05/10 12:14:37;;;;;;;0.80;0.60;;;;;;;;;;5061295;28;20913;-34
2021/05/10 12:17:05;;;;;;;3.65;0.77;;;;;;;;;;5060171;28;20036;-35
2021/05/10 12:19:49;;;;;;;0.40;0.17;;;;;;;;;;5059527;28;20137;-34
2021/05/10 12:22:15;;;;;;;1.48;0.57;;;;;;;;;;5061249;28;20075;-34
2021/05/10 12:24:59;;;;;;;7.82;0.60;;;;;;;;;;5060612;28;20445;-36
2021/05/10 12:27:25;;;;;;;1.40;0.65;;;;;;;;;;5059949;28;20037;-35
2021/05/10 12:29:51;;;;;;;0.95;0.50;;;;;;;;;;5058414;28;20405;-34
2021/05/10 12:32:16;;;;;;;0.50;0.40;;;;;;;;;;5061439;28;20124;-35
2021/05/10 12:34:42;;;;;;;2.92;0.52;;;;;;;;;;5061874;28;20469;-37
2021/05/10 12:37:07;;;;;;;1.50;0.95;;;;;;;;;;5063054;28;20028;-36
2021/05/10 12:39:33;;;;;;;1.50;0.63;;;;;;;;;;5065058;28;20055;-35
2021/05/10 12:42:17;;;;;;;0.80;0.28;;;;;;;;;;5064876;28;20039;-45
2021/05/10 12:44:54;;;;;;;1.40;0.22;;;;;;;;;;5064408;28;20112;-36
2021/05/10 12:47:38;;;;;;;0.52;0.28;;;;;;;;;;5061639;28;20040;-37
2021/05/10 12:50:04;;;;;;;0.45;0.20;;;;;;;;;;5062516;28;20451;-35
2021/05/10 12:52:29;;;;;;;1.45;0.35;;;;;;;;;;5064356;28;20032;-35
2021/05/10 12:54:56;;;;;;;0.73;0.50;;;;;;;;;;5061165;28;20490;-36
2021/05/10 12:57:28;;;;;;;1.65;0.47;;;;;;;;;;5062650;28;20268;-35
2021/05/10 12:59:53;;;;;;;0.22;0.22;;;;;;;;;;5062408;28;20099;-35
2021/05/10 13:02:19;;;;;;;0.55;0.20;;;;;;;;;;5060039;28;20131;-36
2021/05/10 13:04:45;;;;;;;0.50;0.30;;;;;;;;;;5058945;28;20074;-35
2021/05/10 13:07:10;;;;;;;0.75;0.30;;;;;;;;;;5058074;28;20105;-34
2021/05/10 13:09:35;;;;;;;0.32;0.20;;;;;;;;;;5064878;28;20048;-34
2021/05/10 13:12:11;;;;;;;0.10;0.10;;;;;;;;;;5064580;28;20041;-50
2021/05/10 13:14:47;;;;;;;1.23;0.63;;;;;;;;;;5063126;28;20078;-47
2021/05/10 13:17:38;;;;;;;0.55;0.30;;;;;;;;;;5060818;28;20544;-48
2021/05/10 13:33:41;;;;;;;0.32;0.30;;;;;;;;;;5061631;28;20355;-44
2021/05/10 13:36:25;;;;;;;2.83;0.73;;;;;;;;;;5062171;28;20029;-44
2021/05/10 13:38:53;;;;;;;1.00;0.40;;;;;;;;;;5065284;28;20087;-45
2021/05/10 13:41:21;;;;;;;10.85;1.25;;;;;;;;;;5062627;28;20041;-46
2021/05/10 13:44:04;;;;;;;5.10;0.90;;;;;;;;;;5064327;28;20032;-46
2021/05/10 13:46:30;;;;;;;2.58;0.45;;;;;;;;;;5064464;28;20035;-45
2021/05/10 13:48:56;;;;;;;0.10;0.10;;;;;;;;;;5057792;28;20051;-48
2021/05/10 13:51:22;;;;;;;0.70;0.55;;;;;;;;;;5063368;28;20043;-46
2021/05/10 13:53:47;;;;;;;0.30;0.20;;;;;;;;;;5064652;28;20037;-46
2021/05/10 13:56:13;;;;;;;1.55;0.17;;;;;;;;;;5059864;28;20579;-49
2021/05/10 13:58:42;;;;;;;1.23;0.52;;;;;;;;;;5060261;28;20045;-50
2021/05/10 14:01:07;;;;;;;1.85;0.73;;;;;;;;;;5069521;28;20028;-50
2021/05/10 14:03:32;;;;;;;0.63;0.22;;;;;;;;;;5065950;28;20038;-51
2021/05/10 14:05:58;;;;;;;0.25;0.13;;;;;;;;;;5067276;28;20043;-44
2021/05/10 14:08:23;;;;;;;2.72;0.40;;;;;;;;;;5058275;28;20059;-47
2021/05/10 14:10:50;;;;;;;4.95;0.63;;;;;;;;;;5064550;28;20043;-47
2021/05/10 14:13:17;;;;;;;2.42;0.32;;;;;;;;;;5059130;28;20063;-48
2021/05/10 14:15:42;;;;;;;1.60;0.50;;;;;;;;;;5062632;28;20033;-49
2021/05/10 14:18:11;;;;;;;8.02;1.08;;;;;;;;;;5057866;28;20041;-48
2021/05/10 14:23:20;;;;;;;0.70;0.45;;;;;;;;;;5063829;28;20048;-49
2021/05/10 14:25:46;;;;;;;8.32;0.50;;;;;;;;;;5060052;28;20368;-50
2021/05/10 14:28:11;;;;;;;1.98;1.23;;;;;;;;;;5062722;28;20048;-46
2021/05/10 14:30:37;;;;;;;1.45;0.75;;;;;;;;;;5062885;28;20136;-46
2021/05/10 14:33:02;;;;;;;8.88;1.05;;;;;;;;;;5058676;28;20035;-47
2021/05/10 14:35:28;;;;;;;3.05;1.27;;;;;;;;;;5066457;28;20071;-46
2021/05/10 14:37:54;;;;;;;10.45;1.30;;;;;;;;;;5063960;28;20063;-46
2021/05/10 14:40:19;;;;;;;7.22;1.05;;;;;;;;;;5062023;28;20112;-49
2021/05/10 14:42:44;;;;;;;9.07;1.60;;;;;;;;;;5057718;28;20091;-51
2021/05/10 14:45:10;;;;;;;4.28;1.00;;;;;;;;;;5062076;28;20548;-50
2021/05/10 14:47:35;;;;;;;12.00;2.45;;;;;;;;;;5060140;28;20060;-50
2021/05/10 14:50:01;;;;;;;5.45;1.45;;;;;;;;;;5063048;28;20028;-46
2021/05/10 14:52:26;;;;;;;2.20;1.38;;;;;;;;;;5064095;28;20047;-48
2021/05/10 14:54:51;;;;;;;4.57;1.70;;;;;;;;;;5060667;28;20769;-46
2021/05/10 14:57:17;;;;;;;3.45;1.67;;;;;;;;;;5064642;28;20040;-50
2021/05/10 14:59:42;;;;;;;9.38;1.63;;;;;;;;;;5064811;28;20055;-44